Time;durP1;ratioP1;P1;durP2;ratioP2;P2;SDS_P1;SDS_P2;PMS_P1;PMS_P2;Temp;Humidity;BMP_temperature;BMP_pressure;BME280_temperature;BME280_humidity;BME280_pressure;Samples;Min_cycle;Max_cycle;Signal;HPM_P1;HPM_P2
2022/02/25 00:00:11;;;;;;;12.70;6.43;;;;;;;3.02;48.07;101990.31;2089798;28;20294;-66
2022/02/25 00:01:12;;;;;;;10.93;5.95;;;;;;;1.80;48.37;101821.41;2089755;28;20185;-66
2022/02/25 00:02:12;;;;;;;12.33;6.77;;;;;;;1.96;48.58;101826.97;2089804;28;20665;-66
2022/02/25 00:03:14;;;;;;;9.90;6.47;;;;;;;2.68;48.88;101945.16;2089900;28;20181;-66
2022/02/25 00:04:15;;;;;;;11.60;6.47;;;;;;;2.85;48.81;101982.41;2089840;28;20185;-66
2022/02/25 00:05:15;;;;;;;10.53;6.37;;;;;;;2.76;48.83;101970.78;2089924;28;20708;-66
2022/02/25 00:06:17;;;;;;;12.07;6.50;;;;;;;2.81;48.91;101982.31;2089804;28;20191;-66
2022/02/25 00:07:18;;;;;;;12.18;6.53;;;;;;;2.04;48.84;101859.63;2080806;28;20188;-66
2022/02/25 00:08:18;;;;;;;10.33;6.40;;;;;;;2.59;48.87;101960.13;2081107;28;20215;-66
2022/02/25 00:09:19;;;;;;;11.03;6.87;;;;;;;1.55;49.22;101810.84;2089577;28;20183;-66
2022/02/25 00:10:20;;;;;;;11.00;6.47;;;;;;;2.63;49.09;101983.72;2092732;28;20456;-68
2022/02/25 00:11:20;;;;;;;12.20;6.90;;;;;;;2.60;49.24;101976.22;2098206;28;20241;-68
2022/02/25 00:12:21;;;;;;;11.50;7.00;;;;;;;2.55;49.37;101975.63;2098197;28;20187;-68
2022/02/25 00:13:21;;;;;;;11.47;7.23;;;;;;;1.40;49.66;101806.84;2098129;28;20189;-68
2022/02/25 00:14:22;;;;;;;11.90;6.93;;;;;;;2.46;49.58;101983.97;2098084;28;20183;-68
2022/02/25 00:15:23;;;;;;;14.67;7.23;;;;;;;2.42;49.69;101971.34;2098068;28;20191;-68
2022/02/25 00:16:23;;;;;;;12.87;7.20;;;;;;;1.81;50.04;101879.59;2097163;28;20215;-68
2022/02/25 00:17:24;;;;;;;9.97;6.83;;;;;;;2.33;50.12;101965.19;2098030;28;20183;-68
2022/02/25 00:18:26;;;;;;;11.13;7.33;;;;;;;2.26;50.62;101968.50;2098124;28;20206;-68
2022/02/25 00:19:26;;;;;;;12.25;7.22;;;;;;;2.25;50.65;101969.66;2097716;28;20186;-68
2022/02/25 00:20:27;;;;;;;11.37;7.00;;;;;;;0.89;50.67;101757.59;2089166;28;20258;-68
2022/02/25 00:21:28;;;;;;;13.40;7.03;;;;;;;2.18;50.89;101969.44;2089159;28;20182;-68
2022/02/25 00:22:28;;;;;;;11.37;7.30;;;;;;;2.13;51.12;101966.94;2093910;28;20556;-68
2022/02/25 00:23:29;;;;;;;12.87;7.10;;;;;;;2.12;51.27;101967.28;2089693;28;20657;-68
2022/02/25 00:24:29;;;;;;;10.27;6.67;;;;;;;1.80;51.07;101922.53;2089699;28;20206;-68
2022/02/25 00:25:30;;;;;;;12.20;6.97;;;;;;;2.04;51.48;101966.25;2089798;28;20192;-68
2022/02/25 00:26:30;;;;;;;11.07;6.70;;;;;;;2.03;51.36;101972.06;2089840;28;20184;-68
2022/02/25 00:27:31;;;;;;;11.80;6.87;;;;;;;2.00;51.68;101970.03;2089571;28;20542;-68
2022/02/25 00:28:32;;;;;;;11.40;7.43;;;;;;;1.14;51.88;101838.38;2089790;28;20184;-68
2022/02/25 00:29:32;;;;;;;10.85;6.53;;;;;;;1.94;52.20;101963.19;2089724;28;20556;-68
2022/02/25 00:30:33;;;;;;;11.30;7.03;;;;;;;1.91;52.44;101967.38;2089836;28;20204;-68
2022/02/25 00:31:34;;;;;;;12.03;6.80;;;;;;;1.81;52.57;101950.66;2089596;28;20742;-68
2022/02/25 00:32:35;;;;;;;11.53;7.23;;;;;;;1.37;52.00;101885.97;2089905;28;20184;-68
2022/02/25 00:33:35;;;;;;;12.13;7.00;;;;;;;1.95;51.57;101960.09;2089689;28;20194;-68
2022/02/25 00:34:36;;;;;;;10.93;6.30;;;;;;;0.77;51.27;101801.25;2089629;28;20195;-68
2022/02/25 00:35:37;;;;;;;11.43;6.60;;;;;;;1.40;51.11;101872.41;2089762;28;20252;-68
2022/02/25 00:36:38;;;;;;;9.33;6.47;;;;;;;1.94;51.37;101955.78;2089785;28;20179;-68
2022/02/25 00:37:38;;;;;;;12.73;6.53;;;;;;;1.84;51.25;101966.34;2089536;28;20187;-68
2022/02/25 00:38:39;;;;;;;10.23;5.87;;;;;;;1.83;51.47;101960.13;2089737;28;20169;-68
2022/02/25 00:39:40;;;;;;;11.80;6.93;;;;;;;1.83;51.88;101956.56;2089405;28;20210;-68
2022/02/25 00:40:40;;;;;;;12.10;6.50;;;;;;;1.81;52.34;101954.19;2089880;28;20574;-68
2022/02/25 00:41:41;;;;;;;12.20;7.00;;;;;;;1.81;52.77;101959.63;2089139;28;20223;-68
2022/02/25 00:42:41;;;;;;;10.63;6.50;;;;;;;1.80;52.82;101952.59;2089622;28;20549;-68
2022/02/25 00:43:42;;;;;;;10.80;6.47;;;;;;;1.80;52.76;101955.31;2089524;28;20661;-68
2022/02/25 00:44:42;;;;;;;11.63;6.20;;;;;;;1.68;52.86;101936.19;2089734;28;20187;-68
2022/02/25 00:45:43;;;;;;;11.57;6.87;;;;;;;1.77;52.86;101949.75;2089721;28;20183;-68
2022/02/25 00:46:44;;;;;;;10.32;5.97;;;;;;;1.78;52.85;101957.59;2096144;28;20185;-68
2022/02/25 00:47:45;;;;;;;12.43;6.73;;;;;;;1.75;53.26;101949.31;2089113;28;20182;-68
2022/02/25 00:48:45;;;;;;;10.70;6.17;;;;;;;1.78;53.32;101951.34;2080859;28;20188;-68
2022/02/25 00:49:46;;;;;;;13.87;6.43;;;;;;;1.79;53.52;101953.72;2089551;28;20258;-68
2022/02/25 00:50:46;;;;;;;12.03;7.00;;;;;;;1.86;52.71;101944.97;2089761;28;20195;-68
2022/02/25 00:51:47;;;;;;;10.77;6.83;;;;;;;1.56;52.11;101895.22;2089505;28;20580;-68
2022/02/25 00:52:47;;;;;;;9.30;6.63;;;;;;;1.93;52.27;101946.00;2089692;28;20183;-68
2022/02/25 00:53:48;;;;;;;9.63;6.20;;;;;;;1.92;52.19;101949.06;2089631;28;20692;-68
2022/02/25 00:54:49;;;;;;;10.67;6.23;;;;;;;1.90;52.00;101946.66;2089679;28;20214;-68
2022/02/25 00:55:49;;;;;;;11.00;6.30;;;;;;;1.40;51.88;101866.16;2089577;28;20219;-68
2022/02/25 00:56:50;;;;;;;12.57;6.23;;;;;;;1.35;51.23;101863.66;2089457;28;20183;-68
2022/02/25 00:57:51;;;;;;;10.03;6.37;;;;;;;0.67;51.34;101783.38;2089404;28;20191;-68
2022/02/25 00:58:55;;;;;;;10.38;6.13;;;;;;;1.76;51.50;101953.63;2096760;28;20245;-68
2022/02/25 00:59:56;;;;;;;11.27;6.32;;;;;;;1.19;51.57;101866.25;2097806;28;20720;-68
2022/02/25 01:00:56;;;;;;;10.23;6.23;;;;;;;1.65;51.46;101950.53;2097887;28;20256;-68
2022/02/25 01:01:57;;;;;;;9.87;6.23;;;;;;;1.65;51.14;101952.47;2097658;28;20249;-68
2022/02/25 01:02:57;;;;;;;9.57;6.07;;;;;;;1.62;51.02;101948.50;2097946;28;20197;-68
2022/02/25 01:03:58;;;;;;;10.00;6.50;;;;;;;1.01;50.93;101864.88;2097752;28;20550;-68
2022/02/25 01:05:00;;;;;;;13.77;6.60;;;;;;;0.87;51.44;101855.38;2097774;28;20187;-68
2022/02/25 01:06:01;;;;;;;12.50;6.25;;;;;;;1.52;51.18;101951.66;2097698;28;20213;-68
2022/02/25 01:07:01;;;;;;;11.40;6.53;;;;;;;1.46;51.47;101946.75;2097703;28;20190;-68
2022/02/25 01:08:06;;;;;;;11.27;6.60;;;;;;;1.40;51.78;101951.63;2097769;28;20278;-68
2022/02/25 01:09:07;;;;;;;12.50;6.03;;;;;;;1.38;51.55;101947.63;2097617;28;20665;-68
2022/02/25 01:10:10;;;;;;;10.90;6.40;;;;;;;0.67;51.75;101832.47;2096323;28;20574;-68
2022/02/25 01:11:10;;;;;;;11.70;6.95;;;;;;;1.28;52.47;101931.72;2089542;28;20187;-68
2022/02/25 01:12:11;;;;;;;9.70;6.23;;;;;;;1.37;52.28;101941.41;2089342;28;20186;-68
2022/02/25 01:13:11;;;;;;;10.67;6.10;;;;;;;1.42;52.66;101940.38;2089415;28;20183;-68
2022/02/25 01:14:12;;;;;;;13.13;7.23;;;;;;;1.44;53.59;101949.03;2089397;28;20213;-68
2022/02/25 01:15:14;;;;;;;14.83;7.10;;;;;;;1.42;53.24;101943.09;2089265;28;20184;-68
2022/02/25 01:16:15;;;;;;;10.98;7.32;;;;;;;1.42;53.44;101946.63;2080436;28;20267;-68
2022/02/25 01:17:16;;;;;;;12.07;7.30;;;;;;;1.43;53.67;101950.16;2080466;28;20189;-68
2022/02/25 01:18:16;;;;;;;11.47;6.97;;;;;;;1.43;53.12;101948.22;2089444;28;20270;-68
2022/02/25 01:19:17;;;;;;;13.93;8.10;;;;;;;1.46;53.84;101952.22;2089279;28;20182;-68
2022/02/25 01:20:17;;;;;;;12.67;8.33;;;;;;;1.48;54.09;101947.19;2089362;28;20227;-68
2022/02/25 01:21:18;;;;;;;13.87;8.17;;;;;;;1.53;53.45;101944.25;2089327;28;20252;-68
2022/02/25 01:22:18;;;;;;;11.77;7.10;;;;;;;1.15;53.62;101892.66;2089441;28;20196;-68
2022/02/25 01:23:19;;;;;;;13.97;8.40;;;;;;;0.59;52.67;101797.13;2089280;28;20184;-68
2022/02/25 01:24:20;;;;;;;15.00;9.30;;;;;;;0.48;52.93;101798.66;2089350;28;20249;-68
2022/02/25 01:25:21;;;;;;;15.73;8.03;;;;;;;1.56;52.99;101949.84;2089327;28;20680;-68
2022/02/25 01:26:22;;;;;;;15.32;9.10;;;;;;;1.56;53.25;101949.03;2089352;28;20417;-68
2022/02/25 01:27:23;;;;;;;17.50;10.83;;;;;;;1.56;54.36;101947.13;2088873;28;20665;-68
2022/02/25 01:28:24;;;;;;;13.90;8.27;;;;;;;1.13;53.73;101877.75;2089283;28;20234;-68
2022/02/25 01:29:24;;;;;;;16.87;10.53;;;;;;;1.55;54.01;101948.22;2089166;28;20235;-68
2022/02/25 01:30:25;;;;;;;16.07;8.57;;;;;;;1.58;53.79;101939.38;2089366;28;20566;-68
2022/02/25 01:31:25;;;;;;;12.80;8.07;;;;;;;1.39;53.43;101905.56;2089015;28;20266;-68
2022/02/25 01:32:26;;;;;;;14.67;8.03;;;;;;;1.63;53.59;101947.34;2080440;28;20219;-68
2022/02/25 01:33:27;;;;;;;12.45;7.43;;;;;;;1.66;53.00;101943.13;2080560;28;20682;-68
2022/02/25 01:34:28;;;;;;;15.10;8.60;;;;;;;1.70;54.34;101944.84;2093306;28;20541;-68
2022/02/25 01:35:28;;;;;;;12.60;7.73;;;;;;;1.71;53.06;101940.97;2097740;28;20414;-68
2022/02/25 01:36:29;;;;;;;13.13;8.27;;;;;;;0.90;53.22;101813.78;2097583;28;20267;-68
2022/02/25 01:37:30;;;;;;;13.27;9.23;;;;;;;0.67;53.85;101777.91;2097329;28;20178;-68
2022/02/25 01:38:30;;;;;;;16.40;8.30;;;;;;;1.68;53.91;101944.38;2097471;28;20191;-68
2022/02/25 01:39:31;;;;;;;15.10;8.37;;;;;;;1.69;54.24;101956.91;2097404;28;20183;-68
2022/02/25 01:40:32;;;;;;;13.47;8.57;;;;;;;1.71;54.55;101934.72;2097578;28;20190;-68
2022/02/25 01:41:33;;;;;;;14.53;8.60;;;;;;;1.69;54.54;101935.06;2097086;28;20249;-68
2022/02/25 01:42:43;;;;;;;16.55;8.10;;;;;;;1.76;54.02;101926.28;2097459;28;20237;-68
2022/02/25 01:43:44;;;;;;;14.93;8.80;;;;;;;1.80;54.02;101925.25;2097631;28;20176;-68
2022/02/25 01:44:46;;;;;;;17.42;8.43;;;;;;;1.83;53.72;101915.56;2097630;28;20198;-68
2022/02/25 01:45:46;;;;;;;13.50;8.25;;;;;;;1.86;53.85;101926.63;2097580;28;20262;-68
2022/02/25 01:46:56;;;;;;;14.87;9.00;;;;;;;1.88;53.75;101918.06;2090857;28;20199;-68
2022/02/25 01:47:56;;;;;;;14.88;8.57;;;;;;;1.85;53.52;101921.50;2090365;28;20681;-68
2022/02/25 01:48:57;;;;;;;14.80;8.57;;;;;;;1.85;53.66;101924.25;2082256;28;20592;-68
2022/02/25 01:49:57;;;;;;;16.57;8.33;;;;;;;1.87;53.32;101920.03;2080306;28;20193;-68
2022/02/25 01:50:58;;;;;;;13.40;8.47;;;;;;;1.90;53.73;101924.00;2089197;28;20202;-68
2022/02/25 01:52:06;;;;;;;13.47;8.87;;;;;;;1.89;53.69;101920.47;2088928;28;20188;-68
2022/02/25 01:53:08;;;;;;;16.73;8.95;;;;;;;1.92;53.79;101928.00;2089189;28;20196;-68
2022/02/25 01:54:09;;;;;;;22.73;10.18;;;;;;;1.32;53.80;101832.38;2089166;28;20277;-68
2022/02/25 01:55:10;;;;;;;27.60;10.65;;;;;;;1.94;54.20;101922.16;2089207;28;20185;-68
2022/02/25 01:56:12;;;;;;;22.13;9.70;;;;;;;1.93;53.91;101926.84;2089183;28;20216;-68
2022/02/25 01:57:16;;;;;;;21.77;10.52;;;;;;;1.95;54.34;101923.78;2088979;28;20570;-68
2022/02/25 01:58:16;;;;;;;16.15;8.68;;;;;;;0.79;53.80;101738.94;2089017;28;20194;-68
2022/02/25 01:59:17;;;;;;;16.00;8.33;;;;;;;0.93;54.41;101769.44;2088853;28;20187;-68
2022/02/25 02:00:20;;;;;;;11.93;7.68;;;;;;;1.64;54.43;101877.13;2089137;28;20212;-68
2022/02/25 02:01:20;;;;;;;13.90;8.55;;;;;;;1.79;54.52;101915.47;2089034;28;20588;-68
2022/02/25 02:02:22;;;;;;;18.93;10.87;;;;;;;1.71;54.94;101910.91;2089170;28;20188;-68
2022/02/25 02:03:23;;;;;;;22.98;15.02;;;;;;;1.63;54.92;101911.00;2080274;28;20227;-68
2022/02/25 02:04:25;;;;;;;20.23;11.57;;;;;;;1.77;54.51;101911.47;2080338;28;20193;-68
2022/02/25 02:05:26;;;;;;;41.13;20.95;;;;;;;0.91;54.50;101788.88;2089362;28;20387;-68
2022/02/25 02:06:28;;;;;;;38.00;16.53;;;;;;;1.68;54.66;101913.53;2089176;28;20657;-68
2022/02/25 02:07:28;;;;;;;18.67;9.48;;;;;;;0.78;54.68;101794.66;2089012;28;20270;-68
2022/02/25 02:08:28;;;;;;;16.27;8.67;;;;;;;1.57;54.47;101904.19;2089255;28;20257;-68
2022/02/25 02:09:29;;;;;;;12.10;6.83;;;;;;;1.59;54.20;101913.63;2089012;28;20286;-68
2022/02/25 02:10:30;;;;;;;14.30;7.17;;;;;;;1.62;54.30;101914.88;2089122;28;20190;-68
2022/02/25 02:11:36;;;;;;;19.83;12.67;;;;;;;1.63;54.50;101921.94;2088897;28;20194;-68
2022/02/25 02:12:37;;;;;;;21.38;13.15;;;;;;;1.65;54.66;101920.47;2089283;28;20650;-68
2022/02/25 02:13:37;;;;;;;20.03;11.57;;;;;;;1.64;54.58;101918.09;2089026;28;20183;-68
2022/02/25 02:14:38;;;;;;;12.03;7.30;;;;;;;1.66;54.21;101921.28;2089231;28;20622;-68
2022/02/25 02:15:38;;;;;;;13.33;7.40;;;;;;;1.65;54.11;101928.66;2089140;28;20211;-68
2022/02/25 02:16:41;;;;;;;13.10;7.47;;;;;;;1.67;54.00;101925.59;2089109;28;20565;-68
2022/02/25 02:17:42;;;;;;;9.90;5.63;;;;;;;1.68;54.00;101929.91;2088938;28;20270;-68
2022/02/25 02:18:42;;;;;;;5.97;4.13;;;;;;;1.01;53.73;101834.84;2088828;28;20194;-68
2022/02/25 02:19:43;;;;;;;7.67;5.10;;;;;;;1.63;53.82;101920.03;2088899;28;20235;-68
2022/02/25 02:20:43;;;;;;;9.63;5.77;;;;;;;1.58;53.98;101916.69;2089234;28;20183;-68
2022/02/25 02:21:55;;;;;;;7.70;5.53;;;;;;;1.71;53.72;101918.31;2089128;28;20192;-68
2022/02/25 02:22:55;;;;;;;8.30;4.30;;;;;;;1.66;53.67;101919.34;2096826;28;20241;-68
2022/02/25 02:23:59;;;;;;;8.23;3.73;;;;;;;1.68;53.30;101916.25;2097276;28;20191;-68
2022/02/25 02:25:00;;;;;;;5.57;3.65;;;;;;;1.67;53.10;101917.41;2097540;28;20198;-68
2022/02/25 02:26:01;;;;;;;8.30;5.43;;;;;;;1.21;53.45;101866.72;2097387;28;20202;-68
2022/02/25 02:27:01;;;;;;;9.67;5.37;;;;;;;1.66;53.79;101916.63;2097363;28;20191;-68
2022/02/25 02:28:21;;;;;;;10.23;5.13;;;;;;;1.59;53.72;101904.66;2097302;28;20213;-68
2022/02/25 02:29:22;;;;;;;7.43;4.50;;;;;;;0.54;53.81;101729.13;2088217;28;20249;-68
2022/02/25 02:30:23;;;;;;;7.77;4.40;;;;;;;1.65;53.80;101917.72;2088477;28;20187;-68
2022/02/25 02:31:25;;;;;;;6.85;4.20;;;;;;;1.66;53.51;101918.53;2097271;28;20191;-68
2022/02/25 02:32:25;;;;;;;12.85;5.28;;;;;;;1.66;53.40;101921.28;2097307;28;20186;-68
2022/02/25 02:33:26;;;;;;;11.27;4.43;;;;;;;1.62;53.25;101923.91;2097406;28;20195;-68
2022/02/25 02:34:26;;;;;;;8.83;3.43;;;;;;;1.52;53.08;101893.47;2097206;28;20278;-68
2022/02/25 02:35:27;;;;;;;11.70;4.80;;;;;;;1.43;53.09;101881.84;2097276;28;20560;-68
2022/02/25 02:36:28;;;;;;;11.30;6.40;;;;;;;1.74;52.20;101925.81;2097473;28;20190;-68
2022/02/25 02:37:28;;;;;;;9.70;4.03;;;;;;;1.69;52.12;101924.13;2096999;28;20184;-68
2022/02/25 02:38:29;;;;;;;8.97;5.00;;;;;;;0.98;51.85;101812.88;2097333;28;20541;-68
2022/02/25 02:39:30;;;;;;;9.60;6.10;;;;;;;1.66;50.64;101924.00;2097225;28;20560;-68
2022/02/25 02:40:31;;;;;;;11.27;6.27;;;;;;;1.61;50.79;101921.50;2098939;28;20265;-68
2022/02/25 02:41:32;;;;;;;12.80;6.60;;;;;;;1.56;50.46;101927.19;2098707;28;20229;-68
2022/02/25 02:42:32;;;;;;;8.47;5.90;;;;;;;1.52;50.48;101920.81;2098551;28;20195;-68
2022/02/25 02:43:34;;;;;;;5.80;3.43;;;;;;;1.33;52.25;101926.00;2098657;28;20184;-68
2022/02/25 02:44:35;;;;;;;7.93;4.32;;;;;;;1.03;52.18;101895.34;2098788;28;20171;-68
2022/02/25 02:45:36;;;;;;;7.33;3.13;;;;;;;0.75;52.96;101864.34;2098683;28;20190;-68
2022/02/25 02:46:36;;;;;;;7.47;3.40;;;;;;;1.13;53.03;101924.94;2093696;28;20194;-68
2022/02/25 02:47:37;;;;;;;8.47;3.30;;;;;;;1.10;52.89;101925.63;2090310;28;20277;-68
2022/02/25 02:48:38;;;;;;;9.87;4.20;;;;;;;1.07;53.10;101922.75;2097479;28;20198;-68
2022/02/25 02:49:39;;;;;;;9.75;5.00;;;;;;;1.01;52.73;101914.00;2098408;28;20297;-68
2022/02/25 02:50:39;;;;;;;12.57;5.60;;;;;;;0.92;52.84;101921.47;2098805;28;20231;-68
2022/02/25 02:51:40;;;;;;;7.60;5.20;;;;;;;1.08;53.06;101922.44;2098478;28;20661;-68
2022/02/25 02:52:40;;;;;;;8.90;4.97;;;;;;;1.12;52.37;101931.53;2098840;28;20183;-68
2022/02/25 02:53:41;;;;;;;9.63;4.50;;;;;;;1.12;52.16;101938.94;2098634;28;20574;-68
2022/02/25 02:54:42;;;;;;;9.20;4.83;;;;;;;-0.02;52.10;101755.22;2098734;28;20179;-68
2022/02/25 02:55:43;;;;;;;8.83;5.60;;;;;;;1.07;52.05;101939.13;2098674;28;20180;-68
2022/02/25 02:56:44;;;;;;;11.10;5.60;;;;;;;1.02;51.54;101931.16;2098839;28;20191;-68
2022/02/25 02:57:44;;;;;;;10.00;5.67;;;;;;;0.97;51.36;101932.19;2098516;28;20191;-68
2022/02/25 02:58:46;;;;;;;12.00;6.00;;;;;;;1.00;51.58;101944.34;2091926;28;20769;-68
2022/02/25 02:59:46;;;;;;;11.00;6.70;;;;;;;0.96;51.38;101946.97;2090255;28;20290;-68
2022/02/25 03:00:48;;;;;;;14.20;6.67;;;;;;;0.97;51.51;101945.81;2090433;28;20189;-68
2022/02/25 03:01:49;;;;;;;10.75;6.50;;;;;;;0.94;51.33;101942.97;2090121;28;20195;-68
2022/02/25 03:02:50;;;;;;;9.50;6.27;;;;;;;0.87;50.98;101953.63;2090530;28;20208;-68
2022/02/25 03:03:51;;;;;;;9.27;6.27;;;;;;;0.84;51.22;101954.31;2081292;28;20188;-68
2022/02/25 03:04:51;;;;;;;10.93;6.78;;;;;;;0.81;51.29;101946.78;2081631;28;20200;-68
2022/02/25 03:05:52;;;;;;;10.33;6.73;;;;;;;0.68;51.27;101936.97;2090330;28;20188;-68
2022/02/25 03:06:52;;;;;;;11.47;6.43;;;;;;;-0.21;51.41;101801.19;2090423;28;20195;-68
2022/02/25 03:07:53;;;;;;;14.13;6.90;;;;;;;-0.28;51.89;101806.38;2089849;28;20191;-68
2022/02/25 03:08:54;;;;;;;14.83;7.27;;;;;;;0.70;51.81;101946.41;2090131;28;20192;-68
2022/02/25 03:09:55;;;;;;;17.25;7.40;;;;;;;0.67;51.54;101938.88;2090019;28;20188;-68
2022/02/25 03:10:56;;;;;;;11.30;6.77;;;;;;;-0.54;51.37;101758.66;2098026;28;20274;-68
2022/02/25 03:11:56;;;;;;;10.73;6.57;;;;;;;0.58;51.54;101951.78;2098529;28;20683;-68
2022/02/25 03:12:57;;;;;;;22.67;7.33;;;;;;;0.56;52.14;101973.16;2098717;28;20195;-68
2022/02/25 03:13:58;;;;;;;14.50;6.33;;;;;;;0.38;51.93;101921.81;2098421;28;20571;-68
2022/02/25 03:14:59;;;;;;;11.47;6.03;;;;;;;0.59;52.05;101944.41;2089697;28;20196;-68
2022/02/25 03:15:59;;;;;;;7.70;4.93;;;;;;;0.40;51.67;101920.34;2089578;28;20219;-68
2022/02/25 03:17:00;;;;;;;11.53;5.60;;;;;;;0.57;51.86;101941.22;2098377;28;20184;-68
2022/02/25 03:18:00;;;;;;;10.23;4.90;;;;;;;0.50;52.04;101936.31;2098399;28;20585;-68
2022/02/25 03:19:01;;;;;;;11.00;5.57;;;;;;;0.14;52.07;101886.22;2098238;28;20191;-68
2022/02/25 03:20:02;;;;;;;11.37;5.43;;;;;;;-0.30;52.02;101840.53;2098448;28;20288;-68
2022/02/25 03:21:03;;;;;;;10.23;5.20;;;;;;;0.04;52.02;101872.97;2098501;28;20218;-68
2022/02/25 03:22:04;;;;;;;9.10;4.87;;;;;;;0.25;52.05;101901.84;2097632;28;20197;-68
2022/02/25 03:23:04;;;;;;;8.57;5.00;;;;;;;-0.37;51.95;101818.44;2090216;28;20192;-68
2022/02/25 03:24:05;;;;;;;9.40;4.70;;;;;;;-0.22;52.46;101836.16;2090187;28;20230;-68
2022/02/25 03:25:06;;;;;;;12.20;4.90;;;;;;;-0.58;52.19;101784.16;2090100;28;20191;-68
2022/02/25 03:26:10;;;;;;;10.73;5.10;;;;;;;-0.62;52.34;101767.66;2090220;28;20193;-68
2022/02/25 03:27:10;;;;;;;9.60;4.57;;;;;;;0.37;52.78;101936.56;2090109;28;20208;-68
2022/02/25 03:28:11;;;;;;;8.97;4.90;;;;;;;0.32;52.78;101928.59;2090142;28;20245;-68
2022/02/25 03:29:12;;;;;;;8.68;4.40;;;;;;;0.30;53.06;101937.09;2089926;28;20571;-68
2022/02/25 03:30:14;;;;;;;8.73;4.50;;;;;;;0.27;53.61;101926.06;2090141;28;20208;-68
2022/02/25 03:31:14;;;;;;;10.20;4.72;;;;;;;0.28;53.46;101928.47;2090064;28;20192;-68
2022/02/25 03:32:15;;;;;;;10.23;5.20;;;;;;;0.29;53.22;101924.59;2081222;28;20195;-68
2022/02/25 03:33:15;;;;;;;8.80;4.90;;;;;;;-1.07;53.47;101717.69;2081385;28;20191;-68
2022/02/25 03:34:16;;;;;;;9.40;4.83;;;;;;;-0.61;53.28;101786.41;2092386;28;20188;-68
2022/02/25 03:35:17;;;;;;;8.23;4.60;;;;;;;0.26;53.77;101921.75;2098335;28;20194;-68
2022/02/25 03:36:18;;;;;;;7.80;4.50;;;;;;;0.25;53.83;101925.56;2098385;28;20259;-68
2022/02/25 03:37:19;;;;;;;11.40;5.03;;;;;;;0.17;53.76;101924.50;2098354;28;20182;-68
2022/02/25 03:38:19;;;;;;;11.20;5.10;;;;;;;0.09;54.22;101932.75;2098425;28;20318;-68
2022/02/25 03:39:20;;;;;;;14.53;5.97;;;;;;;0.08;54.22;101928.44;2098093;28;20661;-68
2022/02/25 03:40:21;;;;;;;16.13;5.13;;;;;;;0.05;54.73;101929.88;2098306;28;20700;-68
2022/02/25 03:41:21;;;;;;;12.77;4.80;;;;;;;0.06;54.79;101926.03;2089236;28;20194;-68
2022/02/25 03:42:22;;;;;;;14.73;5.27;;;;;;;0.06;54.17;101917.84;2089533;28;20183;-68
2022/02/25 03:43:22;;;;;;;8.63;4.50;;;;;;;-0.49;53.63;101829.25;2098322;28;20240;-68
2022/02/25 03:44:23;;;;;;;8.40;4.13;;;;;;;0.18;53.61;101934.31;2098351;28;20213;-68
2022/02/25 03:45:23;;;;;;;9.47;4.53;;;;;;;0.17;53.53;101921.78;2098228;28;20789;-68
2022/02/25 03:46:24;;;;;;;9.47;4.47;;;;;;;-0.34;54.09;101842.31;2089314;28;20192;-68
2022/02/25 03:47:24;;;;;;;8.73;4.93;;;;;;;0.15;55.01;101929.50;2089392;28;20264;-68
2022/02/25 03:48:25;;;;;;;9.20;4.70;;;;;;;0.15;55.23;101918.59;2093001;28;20188;-68
2022/02/25 03:49:26;;;;;;;10.23;4.60;;;;;;;0.16;54.51;101914.72;2080950;28;20201;-68
2022/02/25 03:50:27;;;;;;;12.95;6.85;;;;;;;0.12;55.06;101919.25;2081169;28;20183;-68
2022/02/25 03:51:29;;;;;;;6.47;4.13;;;;;;;0.00;54.30;101896.59;2089947;28;20215;-68
2022/02/25 03:52:30;;;;;;;7.57;4.15;;;;;;;0.16;55.49;101917.47;2089909;28;20207;-68
2022/02/25 03:53:30;;;;;;;8.23;4.93;;;;;;;0.16;55.82;101922.91;2081110;28;20257;-68
2022/02/25 03:54:31;;;;;;;6.50;3.90;;;;;;;0.18;54.99;101933.50;2081309;28;20211;-68
2022/02/25 03:55:32;;;;;;;7.00;4.40;;;;;;;0.06;54.67;101898.00;2090071;28;20175;-68
2022/02/25 03:56:32;;;;;;;13.23;4.70;;;;;;;-0.63;54.75;101791.38;2089905;28;20307;-68
2022/02/25 03:57:33;;;;;;;7.40;4.33;;;;;;;-0.51;54.98;101802.34;2089679;28;20183;-68
2022/02/25 03:58:34;;;;;;;8.27;4.10;;;;;;;-0.07;54.80;101875.31;2094564;28;20187;-68
2022/02/25 03:59:34;;;;;;;8.13;5.50;;;;;;;0.25;55.26;101920.13;2098054;28;20190;-68
2022/02/25 04:00:35;;;;;;;7.97;4.70;;;;;;;-0.62;55.58;101790.25;2098410;28;20240;-68
2022/02/25 04:01:35;;;;;;;12.20;6.13;;;;;;;0.27;55.89;101932.28;2098115;28;20583;-68
2022/02/25 04:02:36;;;;;;;9.73;5.93;;;;;;;-0.78;55.99;101761.19;2098265;28;20180;-68
2022/02/25 04:03:36;;;;;;;9.37;5.07;;;;;;;0.12;55.65;101883.81;2098298;28;20219;-68
2022/02/25 04:04:37;;;;;;;10.20;5.00;;;;;;;0.31;55.16;101911.41;2098375;28;20182;-68
2022/02/25 04:05:37;;;;;;;9.47;5.23;;;;;;;0.27;55.68;101896.06;2098130;28;20244;-68
2022/02/25 04:06:38;;;;;;;8.13;5.20;;;;;;;0.19;55.83;101886.00;2098232;28;20661;-68
2022/02/25 04:07:41;;;;;;;8.33;5.50;;;;;;;0.33;56.18;101905.63;2097835;28;20191;-68
2022/02/25 04:08:43;;;;;;;8.27;5.30;;;;;;;0.37;57.19;101912.03;2098094;28;20226;-68
2022/02/25 04:09:43;;;;;;;8.50;5.43;;;;;;;-0.77;56.82;101729.34;2098075;28;20180;-68
2022/02/25 04:10:44;;;;;;;9.53;5.40;;;;;;;0.43;56.23;101910.69;2091981;28;20241;-68
2022/02/25 04:11:45;;;;;;;7.63;5.00;;;;;;;0.48;55.90;101914.00;2089726;28;20249;-68
2022/02/25 04:12:46;;;;;;;7.88;4.97;;;;;;;0.55;55.99;101917.00;2090045;28;20658;-68
2022/02/25 04:13:48;;;;;;;8.53;5.00;;;;;;;0.56;55.22;101917.78;2089840;28;20680;-68
2022/02/25 04:14:48;;;;;;;7.68;4.88;;;;;;;0.51;55.03;101901.63;2089957;28;20201;-68
2022/02/25 04:15:49;;;;;;;6.97;4.87;;;;;;;0.53;55.73;101902.88;2089777;28;20675;-68
2022/02/25 04:16:51;;;;;;;9.00;4.90;;;;;;;0.60;56.14;101911.34;2089843;28;20307;-68
2022/02/25 04:17:52;;;;;;;11.50;5.15;;;;;;;-0.43;55.37;101734.56;2089713;28;20252;-68
2022/02/25 04:18:52;;;;;;;9.70;6.20;;;;;;;0.38;57.11;101865.34;2089812;28;20198;-68
2022/02/25 04:19:53;;;;;;;9.23;5.43;;;;;;;0.15;56.09;101827.84;2089512;28;20215;-68
2022/02/25 04:20:53;;;;;;;9.40;5.53;;;;;;;0.67;56.31;101900.69;2089918;28;20188;-68
2022/02/25 04:21:54;;;;;;;9.03;6.13;;;;;;;0.57;56.55;101881.22;2089605;28;20210;-68
2022/02/25 04:22:54;;;;;;;9.73;5.83;;;;;;;0.70;56.18;101896.50;2097443;28;21080;-68
2022/02/25 04:23:55;;;;;;;9.20;5.43;;;;;;;0.73;56.67;101898.56;2098033;28;20192;-68
2022/02/25 04:24:55;;;;;;;10.23;6.17;;;;;;;0.77;56.30;101902.22;2098184;28;20215;-68
2022/02/25 04:25:56;;;;;;;9.53;5.50;;;;;;;0.79;56.41;101899.94;2097986;28;20603;-68
2022/02/25 04:26:56;;;;;;;10.07;6.13;;;;;;;0.83;55.92;101906.31;2098229;28;20270;-68
2022/02/25 04:27:57;;;;;;;12.03;6.30;;;;;;;0.36;56.35;101842.28;2098176;28;20663;-68
2022/02/25 04:28:57;;;;;;;10.10;5.40;;;;;;;0.05;56.01;101779.97;2093748;28;20215;-68
2022/02/25 04:29:58;;;;;;;18.87;5.83;;;;;;;0.95;54.54;101922.72;2089708;28;20241;-68
2022/02/25 04:30:59;;;;;;;19.03;6.30;;;;;;;-0.04;54.10;101781.97;2089853;28;20226;-68
2022/02/25 04:32:00;;;;;;;19.23;6.70;;;;;;;0.78;54.06;101920.19;2089538;28;20562;-68
2022/02/25 04:33:00;;;;;;;13.27;5.33;;;;;;;0.77;53.27;101924.81;2089799;28;20263;-68
2022/02/25 04:34:01;;;;;;;10.17;5.23;;;;;;;0.70;52.82;101927.31;2081077;28;20248;-68
2022/02/25 04:35:02;;;;;;;15.37;5.33;;;;;;;0.64;52.84;101925.91;2089041;28;20190;-68
2022/02/25 04:36:03;;;;;;;17.63;5.93;;;;;;;0.57;53.66;101925.66;2097819;28;20586;-68
2022/02/25 04:37:04;;;;;;;11.88;5.75;;;;;;;0.57;53.18;101924.88;2097812;28;20194;-68
2022/02/25 04:38:05;;;;;;;14.88;5.35;;;;;;;0.05;52.84;101845.41;2097937;28;20185;-68
2022/02/25 04:39:07;;;;;;;14.40;4.83;;;;;;;0.45;52.62;101922.88;2097738;28;20183;-68
2022/02/25 04:40:08;;;;;;;8.48;5.10;;;;;;;0.43;52.74;101936.00;2097847;28;20238;-68
2022/02/25 04:41:09;;;;;;;14.02;5.10;;;;;;;0.38;52.73;101921.81;2097698;28;20178;-68
2022/02/25 04:42:10;;;;;;;11.80;5.17;;;;;;;0.12;52.26;101899.38;2088991;28;20201;-68
2022/02/25 04:43:10;;;;;;;10.87;4.73;;;;;;;0.15;51.99;101901.44;2089038;28;20229;-68
2022/02/25 04:44:11;;;;;;;10.57;4.70;;;;;;;0.15;51.66;101902.25;2097974;28;20186;-68